Littleton, West Virginia
Current Conditions -  °F | °C
As of 10:53 AM on Friday 31 Oct 2014 (Local Time) from KCKB Reporting Station
Overcast Overcast  
Wind Chill: 45°   Ceiling: 4500
Heat Index: 45°   Visibility: 10mi
Dew Point: 36°   Wind: 3mph
Humidity: 71%   Direction: 220°SW
Pressure: 29.94"   Gusts: NA
Location:  39.7°N, 80.52°W
Report Text: KCKB 311453Z 22003KT 10SM OVC045 07/02 A2994 RMK AO2 SLP138 T00720022 58007
Loading
Personal Weather Stations






























Interactive Weather Map
Tropical Storm Tracking
New forecast layout! Learn more

10-Day Weather Forecast

Advertisements
Track Severe Weather on mobile